sim
Sign-in with your pilot id or email,
or register
Callsign
Passwort

Schedule Details

Flight Number: DLH1991 (2)
Departure: Cologne Bonn Airport (EDDK) at 16:30
Arrival: Munich Airport (EDDM) at 17:35
Route: Lufthansa Passenger Schedule. Enter filed route here before submitting Pirep.

Weather Information
Getting current METAR information for EDDK 192150Z 10003KT 060V140 CAVOK 14/06 Q1017 NOSIG
Getting current METAR information for EDDM 192150Z VRB01KT CAVOK 10/09 Q1018 NOSIG

Schedule Frequency

Route Map